Terminal Aerodrome Forecast
Issued by NWS Duluth, MN

Home | Current Version | Previous Version | Text Only | Print | Product List | Glossary On
Versions: 1 2 3 4 5 6 7 8 9 10 11 12 13 14 15 16 17 18 19
000
FTUS43 KDLH 231137
TAFINL
TAF
KINL 231137Z 2312/2412 20011G17KT P6SM -TSRA SCT030 BKN050CB
      TEMPO 2312/2314 VRB15G25KT 4SM TSRA BR SCT015 BKN025CB
     FM231400 19010G17KT P6SM VCSH SCT020 BKN040
      TEMPO 2318/2321 5SM TSRA SCT010 BKN020CB
     FM232200 25009KT P6SM VCSH BKN050
     FM240300 VRB03KT P6SM SCT050=

USA.gov is the U.S. government's official web portal to all federal, state and local government web resources and services.